createdAt,value
2022-09-09T00:00:19.689Z,69.15
2022-09-09T00:03:29.659Z,69.27
2022-09-09T00:06:45.540Z,69.19
2022-09-09T00:09:59.651Z,69.29
2022-09-09T00:13:18.276Z,69.12
2022-09-09T00:16:28.411Z,69.19
2022-09-09T00:19:41.200Z,69.15
2022-09-09T00:23:00.683Z,69.13
2022-09-09T00:26:15.946Z,69.16
2022-09-09T00:29:32.585Z,69.34
2022-09-09T00:32:40.432Z,69.36
2022-09-09T00:35:49.766Z,69.42
2022-09-09T00:38:59.731Z,69.43
2022-09-09T00:42:17.438Z,69.50
2022-09-09T00:45:41.982Z,69.20
2022-09-09T00:48:55.443Z,69.29
2022-09-09T00:52:19.570Z,69.42
2022-09-09T00:55:41.465Z,69.53
2022-09-09T00:59:01.159Z,69.35
2022-09-09T01:02:14.470Z,69.62
2022-09-09T01:05:27.704Z,69.61
2022-09-09T01:09:07.302Z,69.51
2022-09-09T01:12:17.851Z,69.27
2022-09-09T01:15:29.033Z,69.25
2022-09-09T01:18:38.084Z,69.15
2022-09-09T01:22:02.518Z,69.02
2022-09-09T01:26:03.215Z,69.06
2022-09-09T01:29:11.727Z,68.93
2022-09-09T01:32:51.413Z,68.92
2022-09-09T01:36:02.861Z,68.77
2022-09-09T01:39:08.908Z,68.75
2022-09-09T01:42:17.443Z,68.69
2022-09-09T01:45:24.320Z,68.57
2022-09-09T01:48:30.667Z,68.78
2022-09-09T01:51:37.017Z,68.98
2022-09-09T01:54:43.040Z,68.99
2022-09-09T01:57:58.542Z,69.17
2022-09-09T02:01:15.447Z,69.26
2022-09-09T02:04:33.646Z,69.31
2022-09-09T02:07:43.539Z,69.36
2022-09-09T02:10:56.102Z,69.33
2022-09-09T02:14:06.955Z,69.30
2022-09-09T02:17:16.838Z,69.35
2022-09-09T02:20:25.339Z,69.28
2022-09-09T02:23:32.905Z,69.25
2022-09-09T02:26:41.610Z,69.42
2022-09-09T02:29:48.781Z,69.45
2022-09-09T02:32:59.076Z,69.35
2022-09-09T02:36:08.094Z,69.29
2022-09-09T02:39:14.726Z,69.31
2022-09-09T02:42:20.658Z,69.35
2022-09-09T02:45:27.283Z,69.38
2022-09-09T02:48:38.968Z,69.31
2022-09-09T02:51:56.442Z,69.35
2022-09-09T02:55:12.318Z,69.06
2022-09-09T02:58:20.490Z,69.03
2022-09-09T03:01:26.846Z,69.10
2022-09-09T03:04:33.405Z,69.00
2022-09-09T03:07:40.962Z,69.09
2022-09-09T03:10:46.843Z,69.20
2022-09-09T03:13:52.742Z,69.27
2022-09-09T03:16:57.624Z,69.26
2022-09-09T03:20:04.017Z,69.38
2022-09-09T03:23:15.017Z,69.20
2022-09-09T03:26:21.742Z,69.03
2022-09-09T03:29:26.036Z,68.91
2022-09-09T03:32:32.447Z,68.88
2022-09-09T03:35:38.354Z,68.69
2022-09-09T03:38:44.482Z,68.53
2022-09-09T03:41:50.347Z,68.44
2022-09-09T03:44:58.914Z,68.57
2022-09-09T03:48:06.495Z,68.54
2022-09-09T03:51:12.375Z,68.58
2022-09-09T03:54:18.397Z,68.82
2022-09-09T03:57:24.854Z,68.59
2022-09-09T04:00:31.708Z,68.45
2022-09-09T04:03:37.660Z,68.10
2022-09-09T04:06:41.947Z,68.36
2022-09-09T04:09:47.852Z,68.41
2022-09-09T04:12:53.730Z,68.23
2022-09-09T04:16:01.519Z,68.56
2022-09-09T04:19:08.830Z,68.45
2022-09-09T04:22:14.735Z,68.01
2022-09-09T04:25:20.687Z,68.00
2022-09-09T04:28:28.893Z,68.44
2022-09-09T04:31:35.839Z,68.34
2022-09-09T04:34:42.354Z,68.18
2022-09-09T04:37:49.045Z,68.29
2022-09-09T04:40:55.397Z,68.63
2022-09-09T04:44:01.872Z,68.93
2022-09-09T04:47:08.023Z,68.89
2022-09-09T04:50:14.181Z,68.96
2022-09-09T04:53:20.226Z,69.04
2022-09-09T04:56:24.597Z,69.10
2022-09-09T04:59:31.302Z,69.60
2022-09-09T05:02:39.168Z,69.82
2022-09-09T05:05:45.797Z,70.09
2022-09-09T05:08:51.785Z,69.97
2022-09-09T05:11:56.074Z,70.19
2022-09-09T05:15:02.747Z,70.37
2022-09-09T05:18:09.806Z,70.13
2022-09-09T05:21:17.617Z,70.06
2022-09-09T05:24:24.272Z,69.86
2022-09-09T05:27:32.520Z,69.81
2022-09-09T05:30:38.411Z,69.54
2022-09-09T05:33:47.139Z,69.52
2022-09-09T05:36:53.873Z,69.44
2022-09-09T05:40:00.266Z,69.22
2022-09-09T05:43:06.321Z,68.81
2022-09-09T05:46:11.313Z,68.74
2022-09-09T05:49:17.246Z,68.86
2022-09-09T05:52:21.725Z,68.76
2022-09-09T05:55:27.786Z,68.94
2022-09-09T05:58:34.478Z,68.87
2022-09-09T06:01:41.609Z,68.99
2022-09-09T06:04:47.968Z,69.04
2022-09-09T06:07:56.814Z,69.19
2022-09-09T06:11:07.500Z,69.31
2022-09-09T06:14:13.410Z,69.30
2022-09-09T06:17:19.386Z,69.34
2022-09-09T06:20:24.055Z,69.50
2022-09-09T06:23:30.815Z,69.43
2022-09-09T06:26:38.734Z,69.19
2022-09-09T06:29:44.598Z,69.30
2022-09-09T06:32:51.086Z,69.06
2022-09-09T06:35:58.309Z,69.30
2022-09-09T06:39:04.995Z,69.31
2022-09-09T06:42:11.190Z,69.43
2022-09-09T06:45:17.107Z,69.13
2022-09-09T06:48:21.322Z,69.29
2022-09-09T06:51:28.863Z,69.23
2022-09-09T06:54:34.762Z,68.59
2022-09-09T06:57:38.974Z,67.25
2022-09-09T07:00:44.877Z,67.06
2022-09-09T07:03:51.308Z,66.98
2022-09-09T07:06:57.148Z,66.76
2022-09-09T07:10:01.398Z,66.10
2022-09-09T07:13:08.737Z,65.51
2022-09-09T07:16:16.821Z,64.57
2022-09-09T07:19:22.718Z,63.05
2022-09-09T07:22:26.925Z,61.59
2022-09-09T07:25:32.851Z,61.70
2022-09-09T07:28:37.189Z,61.03
2022-09-09T07:31:43.894Z,61.57
2022-09-09T07:34:51.318Z,61.49
2022-09-09T07:37:57.274Z,60.94
2022-09-09T07:41:12.764Z,60.75
2022-09-09T07:44:20.210Z,58.59
2022-09-09T07:47:26.071Z,59.47
2022-09-09T07:50:30.597Z,61.60
2022-09-09T07:53:37.783Z,62.07
2022-09-09T07:56:44.286Z,61.85
2022-09-09T07:59:50.497Z,61.01
2022-09-09T08:02:56.423Z,60.01
2022-09-09T08:06:07.371Z,57.69
2022-09-09T08:09:13.593Z,57.20
2022-09-09T08:12:20.042Z,57.66
2022-09-09T08:15:25.915Z,59.91
2022-09-09T08:18:32.042Z,60.28
2022-09-09T08:21:41.205Z,60.20
2022-09-09T08:24:48.330Z,60.30
2022-09-09T08:27:55.372Z,59.36
2022-09-09T08:31:09.344Z,59.32
2022-09-09T08:34:16.133Z,60.50
2022-09-09T08:37:22.704Z,62.19
2022-09-09T08:40:36.133Z,62.98
2022-09-09T08:43:43.830Z,61.83
2022-09-09T08:47:03.203Z,59.81
2022-09-09T08:50:22.817Z,57.91
2022-09-09T08:53:39.126Z,60.33
2022-09-09T08:56:45.799Z,59.72
2022-09-09T08:59:52.894Z,61.53
2022-09-09T09:03:08.018Z,62.56
2022-09-09T09:06:29.419Z,60.90
2022-09-09T09:09:41.358Z,56.84
2022-09-09T09:12:50.163Z,57.80
2022-09-09T09:16:01.049Z,58.22
2022-09-09T09:19:07.166Z,57.48
2022-09-09T09:22:23.120Z,59.21
2022-09-09T09:25:33.814Z,58.91
2022-09-09T09:28:41.886Z,58.70
2022-09-09T09:31:51.054Z,59.90
2022-09-09T09:35:00.533Z,57.11
2022-09-09T09:41:46.775Z,57.22
2022-09-09T09:44:53.411Z,58.52
2022-09-09T09:48:08.490Z,59.52
2022-09-09T09:51:17.929Z,59.16
2022-09-09T09:54:30.485Z,56.94
2022-09-09T09:57:38.195Z,56.02
2022-09-09T10:00:52.363Z,57.61
2022-09-09T10:04:00.499Z,58.84
2022-09-09T10:07:14.580Z,59.40
2022-09-09T10:10:29.883Z,57.93
2022-09-09T10:13:46.965Z,54.41
2022-09-09T10:17:06.475Z,55.84
2022-09-09T10:20:34.789Z,56.21
2022-09-09T10:23:55.473Z,56.68
2022-09-09T10:27:08.790Z,55.82
2022-09-09T10:30:20.139Z,55.32
2022-09-09T10:33:35.242Z,54.66
2022-09-09T10:36:50.244Z,54.92
2022-09-09T10:40:04.817Z,52.94
2022-09-09T10:43:22.629Z,53.88
2022-09-09T10:46:37.236Z,52.68
2022-09-09T10:50:09.594Z,51.39
2022-09-09T10:53:24.923Z,51.42
2022-09-09T10:56:30.291Z,50.06
2022-09-09T10:59:42.715Z,50.41
2022-09-09T11:02:51.799Z,50.65
2022-09-09T11:06:02.118Z,51.01
2022-09-09T11:09:16.884Z,50.55
2022-09-09T11:12:23.799Z,51.01
2022-09-09T11:15:37.473Z,50.70
2022-09-09T11:18:46.797Z,49.99
2022-09-09T11:21:55.561Z,50.21
2022-09-09T11:25:06.177Z,49.58
2022-09-09T11:28:32.322Z,49.14
2022-09-09T11:31:47.604Z,48.12
2022-09-09T11:34:57.720Z,50.21
2022-09-09T11:38:27.475Z,51.58
2022-09-09T11:41:38.818Z,50.77
2022-09-09T11:44:45.366Z,50.16
2022-09-09T11:47:58.078Z,49.18
2022-09-09T11:51:11.052Z,49.96
2022-09-09T11:54:33.171Z,50.05
2022-09-09T11:57:40.631Z,49.23
2022-09-09T12:00:48.603Z,49.47
2022-09-09T12:03:58.284Z,51.47
2022-09-09T12:07:07.066Z,51.94
2022-09-09T12:10:28.629Z,51.04
2022-09-09T12:13:35.127Z,50.96
2022-09-09T12:16:41.441Z,51.13
2022-09-09T12:19:47.679Z,51.03
2022-09-09T12:23:09.935Z,52.01
2022-09-09T12:26:36.234Z,52.70
2022-09-09T12:29:51.222Z,52.64
2022-09-09T12:33:11.760Z,50.53
2022-09-09T12:36:21.783Z,49.55
2022-09-09T12:39:36.050Z,49.94
2022-09-09T12:42:44.793Z,47.79
2022-09-09T12:45:57.723Z,47.44
2022-09-09T12:49:03.779Z,46.90
2022-09-09T12:52:15.721Z,47.46
2022-09-09T12:55:26.325Z,48.72
2022-09-09T12:58:34.143Z,49.41
2022-09-09T13:01:40.252Z,50.96
2022-09-09T13:04:48.104Z,49.16
2022-09-09T13:07:54.410Z,48.31
2022-09-09T13:11:04.350Z,47.99
2022-09-09T13:14:20.215Z,49.21
2022-09-09T13:17:30.200Z,49.14
2022-09-09T13:20:36.216Z,46.48
2022-09-09T13:23:42.193Z,46.31
2022-09-09T13:26:57.267Z,46.81
2022-09-09T13:30:03.509Z,46.90
2022-09-09T13:33:24.294Z,46.44
2022-09-09T13:36:35.918Z,44.63
2022-09-09T13:39:41.932Z,46.34
2022-09-09T13:42:49.101Z,47.07
2022-09-09T13:46:00.512Z,46.19
2022-09-09T13:49:23.870Z,46.07
2022-09-09T13:52:33.026Z,44.96
2022-09-09T13:55:40.573Z,44.95
2022-09-09T13:58:46.438Z,43.63
2022-09-09T14:01:53.479Z,43.70
2022-09-09T14:04:59.359Z,44.26
2022-09-09T14:08:08.322Z,44.78
2022-09-09T14:11:16.099Z,46.83
2022-09-09T14:14:21.980Z,44.21
2022-09-09T14:17:32.434Z,44.48
2022-09-09T14:20:38.316Z,44.17
2022-09-09T14:23:44.200Z,45.11
2022-09-09T14:26:50.155Z,43.91
2022-09-09T14:29:56.349Z,44.94
2022-09-09T14:33:02.270Z,45.87
2022-09-09T14:36:08.998Z,45.10
2022-09-09T14:39:15.017Z,44.48
2022-09-09T14:42:20.971Z,44.64
2022-09-09T14:45:27.542Z,45.09
2022-09-09T14:48:35.065Z,45.43
2022-09-09T14:51:41.066Z,46.56
2022-09-09T14:54:46.912Z,45.79
2022-09-09T14:57:52.795Z,46.86
2022-09-09T15:01:03.902Z,46.42
2022-09-09T15:04:09.995Z,46.11
2022-09-09T15:07:15.902Z,46.80
2022-09-09T15:10:22.244Z,47.47
2022-09-09T15:13:28.266Z,48.10
2022-09-09T15:16:34.855Z,48.85
2022-09-09T15:19:43.235Z,48.44
2022-09-09T15:22:49.851Z,48.98
2022-09-09T15:25:57.631Z,48.35
2022-09-09T15:29:04.027Z,49.21
2022-09-09T15:32:10.558Z,49.46
2022-09-09T15:35:16.563Z,50.33
2022-09-09T15:38:22.462Z,50.72
2022-09-09T15:41:29.659Z,50.70
2022-09-09T15:44:43.611Z,51.66
2022-09-09T15:47:51.459Z,50.58
2022-09-09T15:51:19.575Z,50.14
2022-09-09T15:54:35.920Z,50.23
2022-09-09T15:57:41.782Z,52.29
2022-09-09T16:00:47.973Z,52.04
2022-09-09T16:03:54.004Z,51.41
2022-09-09T16:07:02.029Z,52.01
2022-09-09T16:10:09.339Z,52.70
2022-09-09T16:13:15.226Z,56.75
2022-09-09T16:16:24.843Z,57.36
2022-09-09T16:19:30.718Z,55.85
2022-09-09T16:22:36.657Z,55.02
2022-09-09T16:25:43.412Z,54.88
2022-09-09T16:28:49.754Z,54.95
2022-09-09T16:31:59.883Z,54.92
2022-09-09T16:35:10.587Z,55.23
2022-09-09T16:38:16.548Z,56.52
2022-09-09T16:41:23.022Z,58.53
2022-09-09T16:44:28.975Z,59.85
2022-09-09T16:47:35.418Z,60.42
2022-09-09T16:50:41.567Z,60.59
2022-09-09T16:53:47.830Z,61.04
2022-09-09T16:56:53.703Z,62.04
2022-09-09T17:00:00.624Z,63.63
2022-09-09T17:03:07.067Z,63.80
2022-09-09T17:06:16.023Z,62.65
2022-09-09T17:09:23.729Z,62.14
2022-09-09T17:12:29.708Z,61.10
2022-09-09T17:15:35.883Z,61.12
2022-09-09T17:18:42.242Z,61.54
2022-09-09T17:22:14.917Z,62.05
2022-09-09T17:25:15.188Z,63.94
2022-09-09T17:28:26.493Z,64.07
2022-09-09T17:31:33.736Z,63.39
2022-09-09T17:34:40.170Z,62.40
2022-09-09T17:37:46.283Z,62.11
2022-09-09T17:40:52.182Z,61.84
2022-09-09T17:43:56.709Z,61.63
2022-09-09T17:47:19.830Z,61.65
2022-09-09T17:50:26.106Z,60.26
2022-09-09T17:53:32.503Z,60.64
2022-09-09T17:56:39.915Z,61.83
2022-09-09T17:59:45.890Z,63.69
2022-09-09T18:02:51.890Z,64.39
2022-09-09T18:06:03.717Z,63.63
2022-09-09T18:09:13.356Z,62.95
2022-09-09T18:12:19.299Z,63.10
2022-09-09T18:15:33.590Z,62.68
2022-09-09T18:18:45.522Z,62.34
2022-09-09T18:21:51.737Z,62.02
2022-09-09T18:24:58.099Z,61.86
2022-09-09T18:28:04.123Z,61.51
2022-09-09T18:31:12.816Z,61.60
2022-09-09T18:34:20.250Z,61.59
2022-09-09T18:37:26.197Z,61.45
2022-09-09T18:40:31.124Z,61.50
2022-09-09T18:43:36.982Z,61.58
2022-09-09T18:46:41.897Z,61.77
2022-09-09T18:49:47.951Z,61.79
2022-09-09T18:52:54.074Z,61.59
2022-09-09T18:56:02.943Z,61.27
2022-09-09T18:59:11.687Z,61.20
2022-09-09T19:02:17.576Z,61.17
2022-09-09T19:05:21.835Z,61.27
2022-09-09T19:08:27.877Z,61.19
2022-09-09T19:11:34.166Z,61.10
2022-09-09T19:14:40.459Z,61.15
2022-09-09T19:17:46.337Z,61.25
2022-09-09T19:20:50.544Z,61.13
2022-09-09T19:24:01.047Z,61.30
2022-09-09T19:27:08.071Z,61.19
2022-09-09T19:30:14.715Z,61.26
2022-09-09T19:33:20.614Z,61.29
2022-09-09T19:36:25.524Z,61.41
2022-09-09T19:39:32.258Z,61.39
2022-09-09T19:42:38.161Z,61.20
2022-09-09T19:45:42.349Z,61.41
2022-09-09T19:48:48.834Z,61.65
2022-09-09T19:51:56.015Z,61.51
2022-09-09T19:55:01.890Z,61.64
2022-09-09T19:58:07.935Z,61.65
2022-09-09T20:01:13.162Z,62.11
2022-09-09T20:04:19.078Z,62.39
2022-09-09T20:07:24.093Z,62.52
2022-09-09T20:10:30.443Z,62.75
2022-09-09T20:13:39.138Z,62.64
2022-09-09T20:16:46.588Z,62.58
2022-09-09T20:19:52.549Z,62.17
2022-09-09T20:22:57.642Z,62.28
2022-09-09T20:26:08.013Z,62.99
2022-09-09T20:29:17.327Z,63.18
2022-09-09T20:32:23.179Z,62.95
2022-09-09T20:35:29.551Z,63.09
2022-09-09T20:38:35.685Z,63.21
2022-09-09T20:41:45.528Z,63.02
2022-09-09T20:44:51.962Z,62.77
2022-09-09T20:47:58.238Z,62.74
2022-09-09T20:51:10.105Z,63.09
2022-09-09T20:54:17.850Z,62.88
2022-09-09T20:57:24.618Z,62.94
2022-09-09T21:00:30.549Z,63.09
2022-09-09T21:03:37.202Z,63.43
2022-09-09T21:06:43.390Z,63.42
2022-09-09T21:09:49.436Z,63.25
2022-09-09T21:12:54.653Z,63.24
2022-09-09T21:16:00.932Z,63.50
2022-09-09T21:19:06.892Z,63.04
2022-09-09T21:22:14.340Z,63.12
2022-09-09T21:25:20.220Z,62.99
2022-09-09T21:28:27.852Z,62.90
2022-09-09T21:31:33.945Z,63.28
2022-09-09T21:34:42.160Z,63.53
2022-09-09T21:37:48.283Z,63.97
2022-09-09T21:40:54.318Z,63.88
2022-09-09T21:43:58.553Z,64.00
2022-09-09T21:47:04.572Z,64.07
2022-09-09T21:50:09.541Z,64.08
2022-09-09T21:53:20.449Z,64.16
2022-09-09T21:56:26.926Z,63.88
2022-09-09T21:59:33.995Z,64.08
2022-09-09T22:02:40.218Z,64.28
2022-09-09T22:05:50.719Z,64.33
2022-09-09T22:09:01.875Z,64.25
2022-09-09T22:12:08.370Z,64.53
2022-09-09T22:15:14.707Z,64.55
2022-09-09T22:18:20.566Z,64.57
2022-09-09T22:21:27.854Z,64.52
2022-09-09T22:24:34.263Z,64.56
2022-09-09T22:27:40.258Z,64.61
2022-09-09T22:30:44.464Z,64.47
2022-09-09T22:33:51.224Z,64.49
2022-09-09T22:36:57.478Z,64.50
2022-09-09T22:40:03.740Z,64.42
2022-09-09T22:43:16.761Z,64.47
2022-09-09T22:46:23.813Z,64.67
2022-09-09T22:49:30.387Z,64.70
2022-09-09T22:52:36.253Z,64.65
2022-09-09T22:55:42.324Z,64.95
2022-09-09T22:58:47.316Z,65.32
2022-09-09T23:01:53.497Z,65.46
2022-09-09T23:04:59.670Z,65.37
2022-09-09T23:08:05.611Z,65.72
2022-09-09T23:11:13.791Z,66.31
2022-09-09T23:14:19.670Z,66.21
2022-09-09T23:17:25.905Z,65.80
2022-09-09T23:20:32.343Z,65.81
2022-09-09T23:23:39.030Z,65.75
2022-09-09T23:26:46.762Z,65.63
2022-09-09T23:29:52.894Z,65.68
2022-09-09T23:32:58.738Z,66.19
2022-09-09T23:36:08.546Z,66.28
2022-09-09T23:39:14.902Z,66.68
2022-09-09T23:42:20.788Z,66.65
2022-09-09T23:45:26.635Z,66.76
2022-09-09T23:48:32.539Z,66.58
2022-09-09T23:51:39.055Z,66.28
2022-09-09T23:54:45.310Z,66.28
2022-09-09T23:57:51.907Z,66.29
